Time;durP1;ratioP1;P1;durP2;ratioP2;P2;SDS_P1;SDS_P2;PMS_P1;PMS_P2;Temp;Humidity;BMP_temperature;BMP_pressure;BME280_temperature;BME280_humidity;BME280_pressure;Samples;Min_cycle;Max_cycle;Signal;HPM_P1;HPM_P2
2021/12/30 00:00:53;;;;;;;27.90;17.43;;;;;;;4.53;45.80;100405.69;5032391;28;20959;-42
2021/12/30 00:03:22;;;;;;;23.20;16.03;;;;;;;4.52;45.91;100422.50;5031895;28;20432;-43
2021/12/30 00:05:52;;;;;;;22.23;16.70;;;;;;;4.53;45.72;100422.34;5032173;28;20563;-43
2021/12/30 00:08:19;;;;;;;20.43;16.27;;;;;;;4.57;46.29;100425.50;5032527;28;20470;-44
2021/12/30 00:10:48;;;;;;;26.67;18.27;;;;;;;4.54;47.65;100413.41;5032155;28;20471;-44
2021/12/30 00:13:17;;;;;;;28.03;18.27;;;;;;;4.58;47.61;100408.63;5031544;28;20515;-43
2021/12/30 00:15:45;;;;;;;26.90;19.07;;;;;;;4.59;47.14;100407.66;5031085;28;20430;-43
2021/12/30 00:18:13;;;;;;;27.10;17.07;;;;;;;4.60;46.48;100402.19;5023911;28;20458;-42
2021/12/30 00:20:41;;;;;;;34.67;19.33;;;;;;;4.63;46.92;100407.16;5032031;28;20455;-43
2021/12/30 00:23:10;;;;;;;36.90;19.83;;;;;;;4.65;46.98;100404.34;5031122;28;20766;-43
2021/12/30 00:25:41;;;;;;;44.13;20.43;;;;;;;4.66;46.73;100406.81;5032127;28;20559;-42
2021/12/30 00:28:10;;;;;;;50.33;22.27;;;;;;;4.67;47.62;100410.28;5032158;28;20462;-43
2021/12/30 00:30:40;;;;;;;29.77;20.30;;;;;;;4.67;47.58;100408.47;5032113;28;20436;-45
2021/12/30 00:33:08;;;;;;;42.97;21.77;;;;;;;4.68;47.58;100414.59;5031358;28;20440;-44
2021/12/30 00:35:36;;;;;;;35.27;18.50;;;;;;;4.70;47.78;100417.88;5032199;28;20455;-45
2021/12/30 00:38:04;;;;;;;36.47;22.53;;;;;;;4.72;47.47;100414.06;5032058;28;20459;-43
2021/12/30 00:40:32;;;;;;;26.83;19.10;;;;;;;4.75;47.74;100416.38;5032017;28;20942;-42
2021/12/30 00:43:00;;;;;;;46.77;25.40;;;;;;;4.79;47.17;100415.06;5031734;28;20432;-47
2021/12/30 00:45:28;;;;;;;39.07;22.33;;;;;;;4.82;46.54;100427.09;5031248;28;20563;-42
2021/12/30 00:47:58;;;;;;;34.33;21.83;;;;;;;4.82;48.70;100422.66;5031691;28;20459;-43
2021/12/30 00:50:27;;;;;;;84.67;29.50;;;;;;;4.83;48.04;100429.59;5031885;28;20539;-43
2021/12/30 00:52:57;;;;;;;52.93;25.37;;;;;;;4.89;46.57;100430.75;5031660;28;20438;-44
2021/12/30 00:55:25;;;;;;;51.93;24.80;;;;;;;4.92;46.54;100419.84;5031243;28;20846;-44
2021/12/30 00:57:53;;;;;;;80.20;31.77;;;;;;;4.96;46.23;100429.88;5031995;28;20486;-44
2021/12/30 01:00:22;;;;;;;55.13;28.77;;;;;;;5.00;46.13;100430.38;5032199;28;20523;-43
2021/12/30 01:02:50;;;;;;;139.47;40.50;;;;;;;5.00;46.10;100431.22;5031649;28;21033;-46
2021/12/30 01:05:20;;;;;;;93.03;33.23;;;;;;;5.03;45.67;100436.16;5031328;28;20564;-43
2021/12/30 01:07:48;;;;;;;60.17;28.17;;;;;;;5.06;45.78;100450.84;5031710;28;21098;-43
2021/12/30 01:10:20;;;;;;;129.63;34.70;;;;;;;5.08;46.62;100453.34;5031703;28;20436;-46
2021/12/30 01:12:48;;;;;;;107.43;38.40;;;;;;;5.11;46.86;100450.38;5031831;28;20508;-46
2021/12/30 01:15:19;;;;;;;92.47;27.37;;;;;;;5.12;47.16;100449.34;5031478;28;20543;-46
2021/12/30 01:17:52;;;;;;;182.10;40.53;;;;;;;5.15;47.37;100460.41;5031469;28;20467;-42
2021/12/30 01:20:22;;;;;;;88.07;28.80;;;;;;;5.18;47.95;100468.00;5031992;28;20523;-43
2021/12/30 01:22:52;;;;;;;215.20;48.03;;;;;;;5.20;46.94;100468.66;5031617;28;20523;-43
2021/12/30 01:25:20;;;;;;;134.80;38.77;;;;;;;5.25;45.91;100463.72;5030957;28;20460;-44
2021/12/30 01:27:48;;;;;;;148.87;41.80;;;;;;;5.28;43.61;100466.03;5031372;28;21050;-44
2021/12/30 01:30:19;;;;;;;107.33;37.67;;;;;;;5.35;42.36;100476.72;5031670;28;20432;-42
2021/12/30 01:32:47;;;;;;;115.77;37.50;;;;;;;5.38;41.10;100479.84;5032377;28;20432;-45
2021/12/30 01:35:22;;;;;;;168.87;42.53;;;;;;;5.42;40.66;100485.63;5034746;28;20471;-46
2021/12/30 01:37:52;;;;;;;191.90;45.07;;;;;;;5.43;39.12;100485.47;5034855;28;20451;-42
2021/12/30 01:40:21;;;;;;;201.67;43.23;;;;;;;5.49;37.58;100481.34;5034574;28;20432;-46
2021/12/30 01:42:49;;;;;;;108.07;37.70;;;;;;;5.53;36.43;100479.97;5035098;28;20519;-43
2021/12/30 01:45:17;;;;;;;204.03;47.10;;;;;;;5.55;35.42;100480.66;5034518;28;20466;-46
2021/12/30 01:47:50;;;;;;;98.23;40.00;;;;;;;5.62;34.18;100488.72;5035123;28;20494;-44
2021/12/30 01:50:18;;;;;;;126.00;39.73;;;;;;;5.65;33.19;100486.56;5034991;28;20530;-43
2021/12/30 01:52:46;;;;;;;91.60;35.77;;;;;;;5.67;32.84;100487.22;5034716;28;20527;-44
2021/12/30 01:55:16;;;;;;;85.70;35.23;;;;;;;5.70;33.44;100488.69;5034511;28;20486;-43
2021/12/30 01:57:44;;;;;;;98.73;38.10;;;;;;;5.74;32.59;100487.34;5035027;28;20455;-45
2021/12/30 02:00:15;;;;;;;79.70;33.90;;;;;;;5.76;31.84;100490.66;5035012;28;20444;-42
2021/12/30 02:02:42;;;;;;;72.47;31.33;;;;;;;5.79;31.63;100500.91;5034587;28;20432;-45
2021/12/30 02:05:12;;;;;;;60.00;28.33;;;;;;;5.81;30.64;100493.59;5034211;28;20468;-44
2021/12/30 02:07:40;;;;;;;82.60;27.53;;;;;;;5.85;29.41;100500.22;5034971;28;20525;-44
2021/12/30 02:10:09;;;;;;;74.33;26.87;;;;;;;5.88;27.31;100503.38;5034621;28;20443;-45
2021/12/30 02:12:39;;;;;;;62.57;27.20;;;;;;;5.92;26.55;100515.25;5034418;28;20428;-44
2021/12/30 02:15:10;;;;;;;69.93;24.43;;;;;;;5.95;27.20;100519.38;5034357;28;20460;-43
2021/12/30 02:17:38;;;;;;;57.77;25.53;;;;;;;5.97;27.94;100520.03;5025688;28;20540;-44
2021/12/30 02:20:12;;;;;;;47.83;20.83;;;;;;;6.00;25.97;100522.34;5034755;28;20440;-43
2021/12/30 02:22:41;;;;;;;60.33;21.57;;;;;;;6.01;26.76;100531.91;5034445;28;20430;-44
2021/12/30 02:25:09;;;;;;;66.17;21.90;;;;;;;6.04;26.52;100545.66;5034375;28;20547;-44
2021/12/30 02:27:36;;;;;;;42.90;17.57;;;;;;;6.07;26.73;100553.25;5034680;28;20594;-42
2021/12/30 02:30:04;;;;;;;60.87;20.87;;;;;;;6.06;28.12;100566.66;5034851;28;20436;-43
2021/12/30 02:32:32;;;;;;;51.63;19.00;;;;;;;6.09;28.32;100576.91;5034273;28;20442;-43
2021/12/30 02:34:59;;;;;;;41.93;16.00;;;;;;;6.09;29.42;100580.34;5034411;28;20464;-41
2021/12/30 02:37:29;;;;;;;48.23;18.90;;;;;;;6.11;29.02;100578.38;5033661;28;20428;-41
2021/12/30 02:39:57;;;;;;;48.60;16.17;;;;;;;6.14;27.58;100569.28;5033786;28;20545;-43
2021/12/30 02:42:25;;;;;;;40.90;15.20;;;;;;;6.16;27.66;100577.03;5033999;28;20427;-41
2021/12/30 02:44:53;;;;;;;56.17;17.17;;;;;;;6.18;26.98;100575.06;5032731;28;20552;-41
2021/12/30 02:47:21;;;;;;;47.90;15.33;;;;;;;6.18;26.61;100573.25;5033281;28;20469;-41
2021/12/30 02:49:48;;;;;;;39.50;14.20;;;;;;;6.20;27.10;100573.03;5033557;28;20540;-42
2021/12/30 02:52:16;;;;;;;53.07;14.83;;;;;;;6.21;26.56;100580.84;5033435;28;20435;-42
2021/12/30 02:54:45;;;;;;;53.37;14.07;;;;;;;6.24;26.24;100585.78;5032709;28;20482;-41
2021/12/30 02:57:13;;;;;;;52.50;14.10;;;;;;;6.26;26.43;100586.44;5033603;28;20523;-44
2021/12/30 02:59:40;;;;;;;47.77;12.00;;;;;;;6.28;27.24;100594.19;5033425;28;20436;-44
2021/12/30 03:02:08;;;;;;;61.43;13.90;;;;;;;6.28;28.19;100596.84;5033494;28;20443;-41
2021/12/30 03:04:36;;;;;;;38.40;11.80;;;;;;;6.29;29.10;100595.84;5032840;28;20465;-41
2021/12/30 03:07:04;;;;;;;50.83;12.40;;;;;;;6.29;29.03;100591.38;5033078;28;20472;-41
2021/12/30 03:09:33;;;;;;;44.60;12.27;;;;;;;6.30;29.81;100597.50;5032950;28;20462;-41
2021/12/30 03:12:02;;;;;;;31.53;11.67;;;;;;;6.28;30.72;100588.88;5033304;28;20428;-41
2021/12/30 03:14:29;;;;;;;45.03;14.40;;;;;;;6.27;31.16;100603.97;5032482;28;20543;-43
2021/12/30 03:16:57;;;;;;;47.63;13.50;;;;;;;6.30;30.33;100600.16;5031877;28;20435;-42
2021/12/30 03:19:24;;;;;;;44.07;13.80;;;;;;;6.29;30.71;100590.56;5018981;28;20460;-41
2021/12/30 03:21:55;;;;;;;39.20;13.40;;;;;;;6.26;30.83;100597.03;5012861;28;20499;-42
2021/12/30 03:24:23;;;;;;;47.23;12.37;;;;;;;6.28;31.27;100604.78;5012259;28;20556;-41
2021/12/30 03:26:51;;;;;;;41.80;12.23;;;;;;;6.28;31.80;100604.78;5013124;28;20481;-41
2021/12/30 03:29:20;;;;;;;47.23;12.03;;;;;;;6.24;33.10;100600.84;5013160;28;20459;-42
2021/12/30 03:31:48;;;;;;;41.30;11.60;;;;;;;6.21;33.36;100606.47;5012992;28;20488;-42
2021/12/30 03:34:16;;;;;;;39.37;11.47;;;;;;;6.24;31.77;100620.22;5012149;28;20471;-45
2021/12/30 03:36:43;;;;;;;51.37;14.67;;;;;;;6.22;32.19;100627.47;5013289;28;20456;-41
2021/12/30 03:39:13;;;;;;;33.83;11.13;;;;;;;6.24;31.34;100614.09;5012977;28;20457;-41
2021/12/30 03:41:41;;;;;;;42.30;12.37;;;;;;;6.24;32.78;100616.72;5012978;28;20447;-42
2021/12/30 03:44:09;;;;;;;39.17;12.57;;;;;;;6.26;32.28;100622.66;5012336;28;20465;-43
2021/12/30 03:46:38;;;;;;;43.53;12.10;;;;;;;6.24;34.33;100612.25;5012495;28;20946;-42
2021/12/30 03:49:06;;;;;;;47.50;14.13;;;;;;;6.20;36.92;100616.25;5012539;28;20548;-44
2021/12/30 03:51:38;;;;;;;41.03;11.23;;;;;;;6.19;36.97;100624.34;5012783;28;20484;-42
2021/12/30 03:54:07;;;;;;;52.00;12.43;;;;;;;6.17;37.69;100637.75;5012135;28;20473;-42
2021/12/30 03:56:36;;;;;;;56.67;13.07;;;;;;;6.13;38.43;100645.22;5011784;28;20809;-42
2021/12/30 03:59:04;;;;;;;37.30;13.07;;;;;;;6.13;38.29;100645.22;5012608;28;20498;-41
2021/12/30 04:01:32;;;;;;;42.77;13.77;;;;;;;6.09;38.86;100651.03;5012419;28;20463;-41
2021/12/30 04:04:01;;;;;;;31.90;10.73;;;;;;;6.08;39.54;100644.91;5011999;28;20899;-41
2021/12/30 04:06:29;;;;;;;39.03;13.60;;;;;;;6.06;39.72;100656.66;5012539;28;20869;-41
2021/12/30 04:08:58;;;;;;;49.07;13.57;;;;;;;6.06;38.51;100646.09;5012411;28;20544;-42
2021/12/30 04:11:26;;;;;;;38.60;13.47;;;;;;;6.03;38.91;100651.72;5012473;28;20875;-41
2021/12/30 04:13:54;;;;;;;53.73;13.53;;;;;;;6.04;38.48;100642.75;5011647;28;21057;-42
2021/12/30 04:16:22;;;;;;;42.63;11.83;;;;;;;6.02;39.76;100637.66;5012412;28;20435;-41
2021/12/30 04:18:50;;;;;;;38.83;13.87;;;;;;;5.99;40.15;100639.81;5020400;28;20511;-41
2021/12/30 04:21:21;;;;;;;33.97;12.30;;;;;;;5.99;39.67;100634.50;5012146;28;20923;-42
2021/12/30 04:23:48;;;;;;;39.07;11.70;;;;;;;5.93;40.26;100628.06;5011517;28;20986;-43
2021/12/30 04:26:16;;;;;;;46.90;12.40;;;;;;;5.93;38.87;100641.31;5012497;28;20431;-41
2021/12/30 04:28:44;;;;;;;41.33;11.80;;;;;;;5.92;40.36;100646.75;5012201;28;20551;-41
2021/12/30 04:31:12;;;;;;;50.53;13.37;;;;;;;5.90;41.34;100646.09;5012059;28;20429;-42
2021/12/30 04:33:40;;;;;;;49.53;13.30;;;;;;;5.84;42.56;100641.44;5011502;28;20484;-41
2021/12/30 04:36:09;;;;;;;31.80;11.47;;;;;;;5.77;44.87;100636.00;5011975;28;20435;-42
2021/12/30 04:38:38;;;;;;;46.23;13.90;;;;;;;5.70;45.31;100635.03;5011984;28;20902;-41
2021/12/30 04:41:07;;;;;;;64.70;13.70;;;;;;;5.65;46.34;100642.63;5011970;28;20801;-41
2021/12/30 04:43:35;;;;;;;43.17;12.73;;;;;;;5.60;45.55;100647.59;5011404;28;20549;-41
2021/12/30 04:46:03;;;;;;;46.60;12.60;;;;;;;5.54;44.42;100645.63;5012190;28;20469;-41
2021/12/30 04:48:31;;;;;;;58.63;13.57;;;;;;;5.52;44.04;100660.84;5011752;28;20539;-41
2021/12/30 04:50:58;;;;;;;40.93;13.23;;;;;;;5.50;42.52;100666.28;5012125;28;20440;-40
2021/12/30 04:53:26;;;;;;;50.60;12.90;;;;;;;5.50;40.05;100676.03;5011195;28;20457;-42
2021/12/30 04:55:55;;;;;;;45.50;13.43;;;;;;;5.51;37.00;100681.19;5011794;28;20436;-42
2021/12/30 04:58:23;;;;;;;45.10;13.83;;;;;;;5.53;36.86;100681.81;5011823;28;20452;-43
2021/12/30 05:00:51;;;;;;;42.03;13.90;;;;;;;5.55;36.25;100679.03;5011710;28;20514;-41
2021/12/30 05:03:21;;;;;;;53.93;12.67;;;;;;;5.54;36.56;100690.59;5011060;28;20432;-41
2021/12/30 05:05:50;;;;;;;53.67;13.70;;;;;;;5.53;35.98;100686.28;5011707;28;20469;-43
2021/12/30 05:08:19;;;;;;;35.50;13.93;;;;;;;5.49;38.07;100684.97;5013088;28;21034;-42
2021/12/30 05:10:48;;;;;;;46.67;13.60;;;;;;;5.48;38.95;100693.91;5015771;28;20877;-40
2021/12/30 05:13:18;;;;;;;41.80;13.50;;;;;;;5.46;40.01;100690.59;5015059;28;20433;-40
2021/12/30 05:15:47;;;;;;;50.83;12.87;;;;;;;5.41;41.57;100682.31;5015988;28;20871;-42
2021/12/30 05:18:15;;;;;;;60.83;14.60;;;;;;;5.39;43.06;100686.94;5026936;28;20459;-41
2021/12/30 05:20:43;;;;;;;40.17;14.43;;;;;;;5.34;44.65;100703.31;5034672;28;20437;-43
2021/12/30 05:23:12;;;;;;;36.07;12.73;;;;;;;5.29;45.10;100695.03;5034699;28;20812;-41
2021/12/30 05:25:40;;;;;;;55.83;14.63;;;;;;;5.25;43.51;100693.72;5035039;28;20450;-44
2021/12/30 05:28:07;;;;;;;43.83;13.20;;;;;;;5.23;41.63;100692.22;5034998;28;20480;-42
2021/12/30 05:30:37;;;;;;;56.20;15.83;;;;;;;5.23;39.42;100684.28;5034635;28;20436;-41
2021/12/30 05:33:05;;;;;;;62.47;16.63;;;;;;;5.26;38.02;100707.75;5034383;28;20527;-44
2021/12/30 05:35:33;;;;;;;56.33;15.53;;;;;;;5.29;35.00;100702.97;5035065;28;20502;-41
2021/12/30 05:38:02;;;;;;;66.87;17.63;;;;;;;5.32;33.82;100702.63;5034726;28;20462;-41
2021/12/30 05:40:30;;;;;;;65.00;20.63;;;;;;;5.33;31.73;100709.59;5034815;28;20444;-42
2021/12/30 05:42:58;;;;;;;72.37;18.10;;;;;;;5.37;30.40;100708.28;5034581;28;20940;-40
2021/12/30 05:45:26;;;;;;;87.30;19.90;;;;;;;5.40;30.18;100694.72;5034316;28;20464;-41
2021/12/30 05:47:56;;;;;;;71.40;20.27;;;;;;;5.44;29.74;100703.13;5034687;28;20566;-42
2021/12/30 05:50:25;;;;;;;69.93;18.63;;;;;;;5.49;28.42;100691.09;5034603;28;20945;-41
2021/12/30 05:52:53;;;;;;;65.67;17.83;;;;;;;5.50;28.34;100687.44;5034564;28;20463;-42
2021/12/30 05:55:21;;;;;;;63.37;18.40;;;;;;;5.52;27.46;100684.66;5034103;28;20820;-41
2021/12/30 05:57:52;;;;;;;60.30;17.67;;;;;;;5.55;25.67;100681.69;5034592;28;20451;-41
2021/12/30 06:00:21;;;;;;;88.80;20.50;;;;;;;5.59;25.40;100685.63;5034375;28;20467;-42
2021/12/30 06:02:48;;;;;;;60.70;19.40;;;;;;;5.61;24.61;100691.59;5034473;28;20879;-41
2021/12/30 06:05:18;;;;;;;66.77;20.73;;;;;;;5.63;23.17;100686.97;5034038;28;20468;-41
2021/12/30 06:07:46;;;;;;;65.87;19.37;;;;;;;5.68;23.35;100689.09;5034374;28;20452;-42
2021/12/30 06:10:14;;;;;;;66.47;21.07;;;;;;;5.70;24.18;100681.84;5034300;28;20436;-43
2021/12/30 06:12:43;;;;;;;68.90;20.13;;;;;;;5.73;24.27;100676.22;5033863;28;20436;-43
2021/12/30 06:15:12;;;;;;;76.67;21.50;;;;;;;5.76;23.91;100682.00;5033798;28;20543;-42
2021/12/30 06:17:40;;;;;;;73.07;20.93;;;;;;;5.78;24.28;100687.09;5025291;28;20475;-41
2021/12/30 06:20:10;;;;;;;69.80;21.57;;;;;;;5.80;25.14;100685.94;4993965;28;20437;-41
2021/12/30 06:22:38;;;;;;;51.80;19.03;;;;;;;5.82;24.86;100673.41;4994531;28;20537;-41
2021/12/30 06:25:07;;;;;;;60.20;18.33;;;;;;;5.87;24.75;100673.75;4994014;28;20454;-41
2021/12/30 06:27:35;;;;;;;65.33;17.87;;;;;;;5.88;25.85;100677.22;4994756;28;20472;-41
2021/12/30 06:30:04;;;;;;;51.87;16.47;;;;;;;5.91;25.41;100675.03;4994666;28;20561;-41
2021/12/30 06:32:32;;;;;;;58.13;18.33;;;;;;;5.92;25.56;100689.09;4994434;28;20660;-43
2021/12/30 06:35:00;;;;;;;65.10;18.87;;;;;;;5.95;25.47;100689.59;4994124;28;20502;-40
2021/12/30 06:37:28;;;;;;;45.97;16.33;;;;;;;5.97;25.95;100686.81;4994472;28;20430;-41
2021/12/30 06:39:57;;;;;;;65.17;18.43;;;;;;;5.97;28.05;100681.50;4994417;28;20537;-41
2021/12/30 06:42:24;;;;;;;50.63;15.70;;;;;;;5.96;29.23;100680.66;4994481;28;21141;-41
2021/12/30 06:44:52;;;;;;;41.47;14.33;;;;;;;5.94;31.87;100689.78;4993846;28;20840;-41
2021/12/30 06:47:19;;;;;;;48.80;14.63;;;;;;;5.90;33.27;100696.38;4994456;28;20473;-42
2021/12/30 06:49:47;;;;;;;42.90;14.87;;;;;;;5.89;33.21;100689.44;4994282;28;20589;-40
2021/12/30 06:52:15;;;;;;;57.93;16.20;;;;;;;5.86;33.56;100682.66;4994158;28;20437;-42
2021/12/30 06:54:42;;;;;;;42.13;13.97;;;;;;;5.84;34.26;100683.78;4993610;28;20832;-43
2021/12/30 06:57:16;;;;;;;49.43;13.47;;;;;;;5.80;34.96;100687.75;4992979;28;20434;-41
2021/12/30 06:59:44;;;;;;;45.83;15.23;;;;;;;5.78;34.70;100695.88;4994307;28;20440;-41
2021/12/30 07:02:12;;;;;;;36.53;13.60;;;;;;;5.75;36.05;100706.78;4994200;28;20434;-41
2021/12/30 07:04:39;;;;;;;37.97;13.27;;;;;;;5.75;35.26;100721.84;4993533;28;20508;-42
2021/12/30 07:07:08;;;;;;;42.23;14.30;;;;;;;5.74;35.19;100725.47;4993883;28;20541;-42
2021/12/30 07:09:36;;;;;;;42.50;14.00;;;;;;;5.76;35.22;100728.78;4993888;28;20938;-42
2021/12/30 07:12:04;;;;;;;39.83;13.90;;;;;;;5.76;35.99;100723.50;4993101;28;20529;-42
2021/12/30 07:14:33;;;;;;;49.97;15.53;;;;;;;5.73;36.65;100719.38;4993291;28;20835;-46
2021/12/30 07:17:01;;;;;;;55.50;14.00;;;;;;;5.73;37.37;100726.47;5012947;28;20523;-46
2021/12/30 07:19:29;;;;;;;35.27;14.10;;;;;;;5.71;38.10;100723.16;5027828;28;20448;-44
2021/12/30 07:21:56;;;;;;;45.17;13.97;;;;;;;5.71;39.02;100723.97;5033363;28;20508;-47
2021/12/30 07:24:24;;;;;;;38.70;14.53;;;;;;;5.68;39.78;100716.38;5032496;28;20813;-43
2021/12/30 07:26:53;;;;;;;48.07;15.97;;;;;;;5.66;40.62;100718.38;5032764;28;20442;-48
2021/12/30 07:29:21;;;;;;;49.70;14.00;;;;;;;5.67;40.79;100729.78;5032933;28;20480;-46
2021/12/30 07:31:50;;;;;;;38.47;15.03;;;;;;;5.66;40.05;100723.66;5000751;28;20449;-42
2021/12/30 07:34:18;;;;;;;52.60;14.57;;;;;;;5.69;39.78;100719.84;4990647;28;20830;-45
2021/12/30 07:36:45;;;;;;;57.23;16.27;;;;;;;5.66;41.61;100714.91;4991801;28;20441;-44
2021/12/30 07:39:13;;;;;;;37.77;13.90;;;;;;;5.67;40.88;100717.38;4991885;28;20906;-45
2021/12/30 07:41:45;;;;;;;44.27;15.17;;;;;;;5.65;41.58;100724.66;4991771;28;20806;-46
2021/12/30 07:44:14;;;;;;;36.83;13.80;;;;;;;5.62;43.44;100732.91;4990218;28;20473;-50
2021/12/30 07:46:41;;;;;;;43.63;14.90;;;;;;;5.62;43.54;100721.50;4991436;28;20913;-46
2021/12/30 07:49:10;;;;;;;47.77;14.70;;;;;;;5.60;44.26;100732.25;4991593;28;20573;-44
2021/12/30 07:51:38;;;;;;;54.30;13.97;;;;;;;5.57;44.32;100719.34;4991713;28;20431;-47
2021/12/30 07:54:06;;;;;;;42.50;14.53;;;;;;;5.54;44.14;100728.47;4990427;28;20466;-47
2021/12/30 07:56:33;;;;;;;45.17;14.57;;;;;;;5.56;44.10;100723.00;4991214;28;20817;-45
2021/12/30 07:59:01;;;;;;;39.30;15.00;;;;;;;5.58;42.89;100731.59;4990970;28;20450;-45
2021/12/30 08:01:28;;;;;;;46.50;16.57;;;;;;;5.57;42.57;100748.47;4991869;28;20444;-44
2021/12/30 08:03:56;;;;;;;39.37;14.50;;;;;;;5.59;41.85;100760.53;4990285;28;20505;-45
2021/12/30 08:06:27;;;;;;;44.40;15.67;;;;;;;5.62;41.79;100756.72;4991739;28;20438;-46
2021/12/30 08:08:55;;;;;;;35.10;14.40;;;;;;;5.66;41.94;100752.75;4991598;28;20462;-45
2021/12/30 08:11:23;;;;;;;41.77;17.20;;;;;;;5.67;41.67;100741.19;4990336;28;20670;-41
2021/12/30 08:13:50;;;;;;;43.30;15.87;;;;;;;5.68;42.36;100753.41;4990188;28;20466;-44
2021/12/30 08:16:18;;;;;;;41.13;15.77;;;;;;;5.71;42.29;100757.56;5001877;28;20439;-42
2021/12/30 08:18:46;;;;;;;40.73;14.70;;;;;;;5.72;41.51;100733.59;5022178;28;20464;-42
2021/12/30 08:21:13;;;;;;;59.43;18.13;;;;;;;5.77;40.28;100751.59;5030025;28;20432;-44
2021/12/30 08:23:42;;;;;;;53.47;18.30;;;;;;;5.78;40.30;100755.91;5021231;28;20841;-40
2021/12/30 08:26:10;;;;;;;43.80;16.80;;;;;;;5.82;39.28;100760.72;5011276;28;20427;-44
2021/12/30 08:28:38;;;;;;;39.90;16.93;;;;;;;5.86;39.61;100762.06;5011155;28;20552;-42
2021/12/30 08:31:06;;;;;;;45.10;16.50;;;;;;;5.86;39.96;100751.47;5010293;28;20471;-47
2021/12/30 08:33:34;;;;;;;45.40;17.67;;;;;;;5.89;39.87;100750.31;5009885;28;20518;-41
2021/12/30 08:36:01;;;;;;;43.33;17.13;;;;;;;5.94;39.36;100766.53;5010652;28;20433;-44
2021/12/30 08:38:29;;;;;;;61.10;18.53;;;;;;;5.94;38.99;100775.28;5010617;28;20794;-42
2021/12/30 08:40:58;;;;;;;42.67;17.13;;;;;;;5.97;37.26;100776.78;5010391;28;20430;-43
2021/12/30 08:43:27;;;;;;;60.83;18.73;;;;;;;6.02;36.72;100771.81;5009183;28;20449;-44
2021/12/30 08:45:54;;;;;;;50.30;17.40;;;;;;;6.05;36.44;100772.31;5010647;28;20796;-42
2021/12/30 08:48:22;;;;;;;49.93;16.27;;;;;;;6.10;35.88;100766.50;5010870;28;20457;-44
2021/12/30 08:50:50;;;;;;;76.27;21.30;;;;;;;6.13;35.21;100760.88;5010375;28;20479;-45
2021/12/30 08:53:17;;;;;;;58.37;17.63;;;;;;;6.17;34.12;100753.44;5009614;28;20826;-42
2021/12/30 08:55:45;;;;;;;67.37;19.07;;;;;;;6.22;32.76;100751.94;5010416;28;20957;-45
2021/12/30 08:58:15;;;;;;;62.77;19.60;;;;;;;6.28;32.61;100748.63;5010327;28;20795;-44
2021/12/30 09:00:46;;;;;;;68.07;21.50;;;;;;;6.38;31.17;100741.31;5008093;28;20427;-43
2021/12/30 09:03:15;;;;;;;60.43;20.50;;;;;;;6.44;32.80;100737.16;5008049;28;20209;-46
2021/12/30 09:05:43;;;;;;;74.27;20.27;;;;;;;6.48;33.52;100733.19;5009589;28;20498;-43
2021/12/30 09:08:11;;;;;;;62.10;19.47;;;;;;;6.52;32.92;100735.31;5010086;28;20453;-45
2021/12/30 09:10:40;;;;;;;72.80;20.50;;;;;;;6.55;32.93;100736.78;5009569;28;20472;-43
2021/12/30 09:13:09;;;;;;;72.40;19.17;;;;;;;6.59;32.66;100738.09;5009060;28;20433;-46
2021/12/30 09:15:39;;;;;;;64.23;20.70;;;;;;;6.64;31.29;100731.28;5009432;28;20438;-45
2021/12/30 09:18:07;;;;;;;92.77;26.10;;;;;;;6.74;29.79;100724.97;5020917;28;20484;-42
2021/12/30 09:20:36;;;;;;;74.60;21.50;;;;;;;6.79;31.24;100719.97;5029623;28;20981;-41
2021/12/30 09:23:04;;;;;;;78.67;22.30;;;;;;;6.84;31.58;100725.59;5029121;28;20432;-43
2021/12/30 09:25:32;;;;;;;67.97;21.73;;;;;;;6.88;31.74;100730.38;5029367;28;20531;-42
2021/12/30 09:28:00;;;;;;;72.37;20.97;;;;;;;6.91;32.59;100729.19;5028771;28;20453;-42
2021/12/30 09:30:29;;;;;;;66.53;21.30;;;;;;;6.92;32.45;100720.25;5019995;28;20481;-43
2021/12/30 09:33:00;;;;;;;83.03;22.27;;;;;;;6.97;31.50;100713.41;4991664;28;20430;-45
2021/12/30 09:35:29;;;;;;;86.87;22.17;;;;;;;7.02;31.80;100726.13;4991510;28;20583;-45
2021/12/30 09:37:57;;;;;;;69.23;21.63;;;;;;;7.04;31.06;100722.34;4992101;28;20476;-47
2021/12/30 09:40:27;;;;;;;72.63;25.20;;;;;;;7.07;30.60;100722.00;4992070;28;20448;-44
2021/12/30 09:43:01;;;;;;;55.80;20.03;;;;;;;7.07;32.21;100724.66;4990802;28;20434;-44
2021/12/30 09:45:30;;;;;;;101.03;23.77;;;;;;;7.09;32.59;100725.28;4990194;28;20468;-44
2021/12/30 09:48:00;;;;;;;80.70;22.37;;;;;;;7.08;32.33;100720.16;4992018;28;20454;-43
2021/12/30 09:50:31;;;;;;;88.20;24.00;;;;;;;7.10;31.44;100726.94;4991992;28;20481;-43
2021/12/30 09:53:00;;;;;;;75.70;23.10;;;;;;;7.13;30.42;100729.25;4991839;28;20441;-45
2021/12/30 09:55:29;;;;;;;84.13;22.50;;;;;;;7.16;29.29;100730.72;4993347;28;20466;-45
2021/12/30 09:57:58;;;;;;;91.97;26.13;;;;;;;7.18;28.32;100732.19;4995358;28;20867;-43
2021/12/30 10:00:26;;;;;;;72.83;23.00;;;;;;;7.27;25.55;100725.00;4995544;28;20460;-45
2021/12/30 10:02:54;;;;;;;80.20;25.40;;;;;;;7.30;25.22;100723.84;4995192;28;20544;-44
2021/12/30 10:05:26;;;;;;;103.33;27.87;;;;;;;7.37;23.46;100712.34;4994971;28;20474;-42
2021/12/30 10:08:10;;;;;;;77.37;26.30;;;;;;;7.43;23.97;100710.81;4995167;28;20454;-42
2021/12/30 10:10:40;;;;;;;118.40;28.03;;;;;;;7.44;24.68;100709.81;4995325;28;20482;-47
2021/12/30 10:13:21;;;;;;;108.70;26.47;;;;;;;7.47;24.03;100704.97;4994436;28;20948;-42
2021/12/30 10:15:51;;;;;;;95.47;26.53;;;;;;;7.50;23.71;100704.63;4997184;28;20513;-43
2021/12/30 10:18:19;;;;;;;95.83;25.77;;;;;;;7.55;22.24;100712.06;5026119;28;20547;-44
2021/12/30 10:20:48;;;;;;;79.57;25.77;;;;;;;7.59;21.99;100710.69;5034024;28;20432;-41
2021/12/30 10:23:18;;;;;;;64.23;25.07;;;;;;;7.64;22.16;100716.31;5033822;28;20808;-44
2021/12/30 10:25:47;;;;;;;64.80;24.13;;;;;;;7.64;22.49;100711.00;5034154;28;20523;-43
2021/12/30 10:28:24;;;;;;;77.17;24.30;;;;;;;7.68;22.49;100705.13;5033954;28;20970;-42
2021/12/30 10:30:55;;;;;;;70.07;23.97;;;;;;;7.70;22.33;100707.63;5033821;28;20508;-44
2021/12/30 10:33:25;;;;;;;90.50;27.17;;;;;;;7.70;21.30;100711.13;5033174;28;20942;-46
2021/12/30 10:35:55;;;;;;;78.10;26.30;;;;;;;7.75;21.35;100703.44;5033873;28;20973;-42
2021/12/30 10:38:24;;;;;;;56.43;23.10;;;;;;;7.77;21.54;100695.28;5034152;28;20790;-43
2021/12/30 10:40:53;;;;;;;68.40;22.40;;;;;;;7.82;21.29;100685.75;5033933;28;20968;-42
2021/12/30 10:43:27;;;;;;;67.83;23.70;;;;;;;7.85;20.84;100686.44;5033242;28;20424;-44
2021/12/30 10:46:07;;;;;;;51.93;21.23;;;;;;;7.91;20.29;100673.25;5034004;28;20438;-44
2021/12/30 10:48:44;;;;;;;49.23;22.17;;;;;;;7.95;20.03;100663.91;5034129;28;20456;-44
2021/12/30 10:51:15;;;;;;;36.90;19.30;;;;;;;8.00;19.14;100655.41;5033687;28;20476;-42
2021/12/30 10:53:44;;;;;;;30.33;17.73;;;;;;;8.00;19.49;100658.91;5033178;28;21000;-42
2021/12/30 10:56:23;;;;;;;38.40;17.30;;;;;;;8.11;17.08;100652.28;5033686;28;20803;-44
2021/12/30 10:58:53;;;;;;;27.00;16.50;;;;;;;8.19;15.78;100650.38;5033560;28;20456;-44
2021/12/30 11:01:24;;;;;;;25.13;13.97;;;;;;;8.24;16.07;100663.91;5033860;28;20415;-47
2021/12/30 11:03:55;;;;;;;20.13;13.10;;;;;;;8.29;17.18;100668.72;5033175;28;20483;-43
2021/12/30 11:06:24;;;;;;;26.00;13.97;;;;;;;8.30;16.13;100673.84;5032967;28;20433;-45
2021/12/30 11:09:06;;;;;;;17.80;11.23;;;;;;;8.37;15.15;100673.94;5033548;28;20567;-45
2021/12/30 11:11:34;;;;;;;12.57;10.60;;;;;;;8.37;15.59;100676.59;5033342;28;20475;-42
2021/12/30 11:14:05;;;;;;;13.70;10.60;;;;;;;8.42;15.22;100676.06;5032892;28;20821;-42
2021/12/30 11:16:33;;;;;;;10.83;8.97;;;;;;;8.48;15.90;100680.66;5033315;28;20431;-44
2021/12/30 11:19:09;;;;;;;14.60;10.43;;;;;;;8.53;15.09;100683.56;5021984;28;20461;-44
2021/12/30 11:21:39;;;;;;;13.80;9.80;;;;;;;8.54;16.31;100690.53;5013520;28;20425;-43
2021/12/30 11:24:09;;;;;;;11.03;8.90;;;;;;;8.59;16.24;100698.78;5012824;28;20544;-44